Time;durP1;ratioP1;P1;durP2;ratioP2;P2;SDS_P1;SDS_P2;PMS_P1;PMS_P2;Temp;Humidity;BMP_temperature;BMP_pressure;BME280_temperature;BME280_humidity;BME280_pressure;Samples;Min_cycle;Max_cycle;Signal;HPM_P1;HPM_P2
2023/09/18 00:02:11;;;;;;;3.22;2.20;;;;;;;20.28;100.00;98115.34;5001655;28;20022;-78
2023/09/18 00:04:36;;;;;;;3.58;1.95;;;;;;;20.34;100.00;98127.13;5004833;28;20052;-79
2023/09/18 00:07:02;;;;;;;3.80;2.33;;;;;;;20.26;100.00;98114.81;5014355;28;20026;-79
2023/09/18 00:09:27;;;;;;;3.10;2.10;;;;;;;20.16;100.00;98084.66;5010154;28;20485;-78
2023/09/18 00:11:52;;;;;;;4.35;2.50;;;;;;;20.25;100.00;98115.09;5005511;28;20023;-79
2023/09/18 00:14:18;;;;;;;4.43;2.28;;;;;;;20.24;100.00;98119.75;5009253;28;20401;-79
2023/09/18 00:16:43;;;;;;;2.90;2.05;;;;;;;20.21;100.00;98114.84;5005334;28;20022;-78
2023/09/18 00:19:10;;;;;;;3.80;2.25;;;;;;;20.21;100.00;98114.84;5009269;28;20052;-79
2023/09/18 00:21:36;;;;;;;4.28;1.90;;;;;;;20.36;100.00;98130.41;5005911;28;20033;-79
2023/09/18 00:24:01;;;;;;;4.13;2.30;;;;;;;20.30;100.00;98113.16;4997294;28;20029;-78
2023/09/18 00:26:26;;;;;;;3.78;2.17;;;;;;;20.27;100.00;98118.38;4995335;28;20510;-78
2023/09/18 00:28:52;;;;;;;4.38;2.42;;;;;;;20.21;100.00;98114.03;4999755;28;20080;-77
2023/09/18 00:31:18;;;;;;;4.47;2.60;;;;;;;20.11;100.00;98101.97;4994015;28;20026;-78
2023/09/18 00:33:43;;;;;;;3.47;2.05;;;;;;;20.13;100.00;98112.69;5009800;28;20021;-79
2023/09/18 00:36:08;;;;;;;4.53;2.20;;;;;;;20.08;100.00;98099.78;5009148;28;20104;-78
2023/09/18 00:38:34;;;;;;;5.25;2.25;;;;;;;20.05;100.00;98094.88;5003518;28;20109;-79
2023/09/18 00:40:59;;;;;;;4.28;2.40;;;;;;;20.06;100.00;98082.78;5008894;28;20064;-78
2023/09/18 00:43:24;;;;;;;3.20;2.03;;;;;;;20.12;100.00;98076.16;4992378;28;20034;-78
2023/09/18 00:45:50;;;;;;;4.13;2.55;;;;;;;20.12;100.00;98075.31;4993462;28;20030;-78
2023/09/18 00:48:16;;;;;;;2.85;1.92;;;;;;;19.93;100.00;98047.69;5006253;28;20041;-78
2023/09/18 00:50:44;;;;;;;3.13;2.00;;;;;;;19.91;100.00;98039.75;5015243;28;20025;-78
2023/09/18 00:53:12;;;;;;;7.60;2.50;;;;;;;20.01;100.00;98060.84;5009096;28;20036;-79
2023/09/18 00:55:38;;;;;;;5.03;2.10;;;;;;;20.03;100.00;98066.06;5013334;28;20033;-78
2023/09/18 00:58:05;;;;;;;2.72;1.98;;;;;;;20.01;100.00;98040.78;5001674;28;20022;-78
2023/09/18 01:00:30;;;;;;;6.85;2.38;;;;;;;20.03;100.00;98041.34;5008234;28;20036;-79
2023/09/18 01:02:56;;;;;;;2.33;1.80;;;;;;;20.21;100.00;98065.41;5005567;28;20022;-78
2023/09/18 01:05:21;;;;;;;2.78;2.40;;;;;;;20.24;100.00;98053.84;5007518;28;20506;-78
2023/09/18 01:07:46;;;;;;;6.15;2.45;;;;;;;20.30;100.00;98051.88;5009242;28;20050;-79
2023/09/18 01:10:16;;;;;;;4.60;2.45;;;;;;;20.22;100.00;98039.56;5009858;28;20092;-78
2023/09/18 01:12:54;;;;;;;4.47;2.38;;;;;;;20.29;100.00;98056.56;5013136;28;20026;-78
2023/09/18 01:15:30;;;;;;;3.90;2.10;;;;;;;20.25;100.00;98049.16;5004481;28;20027;-78
2023/09/18 01:17:55;;;;;;;3.00;2.20;;;;;;;20.15;100.00;98050.06;5017136;28;20528;-78
2023/09/18 01:20:20;;;;;;;3.00;2.30;;;;;;;20.09;100.00;98059.41;5012476;28;20021;-78
2023/09/18 01:22:46;;;;;;;3.33;2.40;;;;;;;20.04;100.00;98060.28;5008090;28;20026;-78
2023/09/18 01:25:11;;;;;;;4.45;2.65;;;;;;;20.04;100.00;98059.44;5004746;28;20034;-78
2023/09/18 01:27:37;;;;;;;6.22;2.30;;;;;;;19.96;100.00;98041.63;5008499;28;20034;-79
2023/09/18 01:30:02;;;;;;;5.70;2.63;;;;;;;20.01;100.00;98027.88;5015876;28;20029;-79
2023/09/18 01:32:31;;;;;;;4.03;2.38;;;;;;;20.08;100.00;98041.31;4994562;28;20593;-78
2023/09/18 01:35:00;;;;;;;3.47;2.25;;;;;;;20.05;100.00;98033.66;5003151;28;20030;-79
2023/09/18 01:37:30;;;;;;;3.40;2.40;;;;;;;19.97;100.00;98037.00;5003608;28;20029;-78
2023/09/18 01:39:59;;;;;;;3.90;2.45;;;;;;;19.83;100.00;98040.38;5008413;28;20037;-78
2023/09/18 01:42:26;;;;;;;3.38;2.53;;;;;;;19.76;100.00;98050.00;5011477;28;20018;-78
2023/09/18 01:44:53;;;;;;;4.30;2.78;;;;;;;19.64;100.00;98028.34;5004218;28;20065;-78
2023/09/18 01:47:20;;;;;;;6.32;2.90;;;;;;;19.81;100.00;98041.75;4992547;28;20026;-79
2023/09/18 01:49:46;;;;;;;4.40;2.55;;;;;;;19.88;100.00;98061.44;4992816;28;20018;-79
2023/09/18 01:52:11;;;;;;;5.13;2.90;;;;;;;19.90;100.00;98067.50;5005738;28;20562;-79
2023/09/18 01:54:37;;;;;;;3.67;2.40;;;;;;;19.84;100.00;98083.16;5010981;28;20034;-78
2023/09/18 01:57:03;;;;;;;3.78;2.30;;;;;;;19.77;100.00;98074.41;5013884;28;20022;-79
2023/09/18 01:59:28;;;;;;;4.28;2.60;;;;;;;19.56;100.00;98043.44;5013746;28;20025;-78
2023/09/18 02:01:54;;;;;;;5.18;2.58;;;;;;;19.71;100.00;98089.25;5005338;28;20036;-77
2023/09/18 02:04:20;;;;;;;4.53;2.80;;;;;;;19.68;100.00;98114.53;4997578;28;20196;-77
2023/09/18 02:06:47;;;;;;;9.55;2.35;;;;;;;19.61;100.00;98141.41;4994101;28;20483;-77
2023/09/18 02:09:13;;;;;;;4.88;2.25;;;;;;;19.39;100.00;98123.34;5002940;28;20108;-77
2023/09/18 02:11:40;;;;;;;2.67;2.30;;;;;;;19.40;100.00;98097.56;5011674;28;20168;-77
2023/09/18 02:14:06;;;;;;;6.45;2.80;;;;;;;19.34;100.00;98097.84;5003324;28;20028;-77
2023/09/18 02:16:33;;;;;;;6.68;2.92;;;;;;;19.40;100.00;98130.47;5002201;28;20060;-77
2023/09/18 02:18:58;;;;;;;6.50;2.90;;;;;;;19.15;100.00;98092.97;5017550;28;20030;-79
2023/09/18 02:21:24;;;;;;;4.15;3.03;;;;;;;19.05;100.00;98098.44;4997924;28;20093;-79
2023/09/18 02:23:51;;;;;;;6.20;3.13;;;;;;;18.83;100.00;98093.25;5011917;28;20511;-80
2023/09/18 02:26:19;;;;;;;4.65;3.10;;;;;;;18.68;100.00;98072.13;5010122;28;20030;-79
2023/09/18 02:28:45;;;;;;;5.05;3.03;;;;;;;18.80;100.00;98047.19;5012097;28;20117;-79
2023/09/18 02:31:10;;;;;;;4.63;2.65;;;;;;;19.07;100.00;98057.03;5009003;28;20092;-79
2023/09/18 02:33:37;;;;;;;4.78;2.55;;;;;;;19.16;100.00;98045.22;5007578;28;20034;-79
2023/09/18 02:36:02;;;;;;;3.95;2.30;;;;;;;19.28;100.00;98058.63;5003694;28;20022;-80
2023/09/18 02:38:30;;;;;;;3.97;2.50;;;;;;;19.28;100.00;98069.59;5009163;28;20033;-79
2023/09/18 02:40:56;;;;;;;4.43;2.10;;;;;;;19.03;100.00;98059.50;5012101;28;20028;-78
2023/09/18 02:43:22;;;;;;;6.78;3.25;;;;;;;18.94;100.00;98081.19;5012581;28;20553;-79
2023/09/18 02:45:47;;;;;;;5.45;3.00;;;;;;;18.92;100.00;98105.31;5009835;28;20105;-79
2023/09/18 02:48:12;;;;;;;5.70;3.17;;;;;;;18.84;100.00;98108.59;4998732;28;20022;-79
2023/09/18 02:50:38;;;;;;;7.55;3.50;;;;;;;19.00;100.00;98175.22;5007491;28;20113;-78
2023/09/18 02:53:06;;;;;;;7.65;3.60;;;;;;;18.60;100.00;98142.00;5002278;28;20108;-78
2023/09/18 02:55:32;;;;;;;7.57;3.47;;;;;;;18.55;100.00;98171.28;5007678;28;20104;-78
2023/09/18 02:57:57;;;;;;;6.53;3.00;;;;;;;18.35;100.00;98177.53;5001049;28;20502;-78
2023/09/18 03:00:22;;;;;;;7.40;3.42;;;;;;;18.35;100.00;98178.34;5011745;28;20042;-78
2023/09/18 03:02:48;;;;;;;5.88;2.90;;;;;;;17.93;100.00;98131.94;4999564;28;20113;-78
2023/09/18 03:05:13;;;;;;;6.65;3.33;;;;;;;18.05;100.00;98162.66;4993597;28;20084;-78
2023/09/18 03:07:38;;;;;;;7.32;3.55;;;;;;;18.04;100.00;98154.69;5004269;28;20042;-78
2023/09/18 03:10:05;;;;;;;5.45;3.67;;;;;;;18.07;100.00;98168.66;5008882;28;20487;-78
2023/09/18 03:12:31;;;;;;;11.80;3.75;;;;;;;17.96;100.00;98151.38;5011679;28;20022;-78
2023/09/18 03:14:56;;;;;;;5.38;3.90;;;;;;;18.02;100.00;98143.19;5006520;28;20082;-78
2023/09/18 03:17:22;;;;;;;5.30;4.20;;;;;;;17.96;100.00;98137.69;5005393;28;20049;-80
2023/09/18 03:19:49;;;;;;;6.45;3.97;;;;;;;17.94;100.00;98144.53;5016783;28;20029;-80
2023/09/18 03:22:14;;;;;;;8.10;3.70;;;;;;;18.01;100.00;98161.53;5016506;28;20046;-79
2023/09/18 03:24:39;;;;;;;7.00;4.07;;;;;;;17.89;100.00;98147.22;5017057;28;20116;-81
2023/09/18 03:27:05;;;;;;;6.82;3.60;;;;;;;17.73;100.00;98136.19;5019734;28;20030;-80
2023/09/18 03:29:30;;;;;;;6.30;3.97;;;;;;;17.71;100.00;98138.38;5015852;28;20541;-76
2023/09/18 03:31:58;;;;;;;6.55;4.00;;;;;;;17.76;100.00;98145.78;5003257;28;20351;-80
2023/09/18 03:34:26;;;;;;;8.57;4.05;;;;;;;17.72;100.00;98136.47;5014238;28;20033;-80
2023/09/18 03:36:51;;;;;;;4.32;3.42;;;;;;;17.78;100.00;98129.09;5013306;28;20441;-77
2023/09/18 03:39:16;;;;;;;9.32;4.28;;;;;;;17.91;100.00;98132.19;5005303;28;20087;-79
2023/09/18 03:41:41;;;;;;;8.20;4.25;;;;;;;17.94;100.00;98119.88;5007950;28;20026;-79
2023/09/18 03:44:10;;;;;;;6.32;4.07;;;;;;;18.04;100.00;98124.59;5006061;28;20474;-80
2023/09/18 03:46:35;;;;;;;5.72;3.60;;;;;;;17.99;100.00;98119.91;5010390;28;20030;-78
2023/09/18 03:49:01;;;;;;;11.02;3.88;;;;;;;18.13;100.00;98142.97;4993897;28;20030;-79
2023/09/18 03:51:26;;;;;;;6.22;3.70;;;;;;;18.13;100.00;98142.97;5000451;28;20046;-79
2023/09/18 03:53:52;;;;;;;7.93;3.70;;;;;;;18.15;100.00;98146.22;5003406;28;20054;-79
2023/09/18 03:56:17;;;;;;;5.78;3.72;;;;;;;18.36;100.00;98162.72;5012032;28;20037;-79
2023/09/18 03:58:45;;;;;;;5.57;3.55;;;;;;;18.34;100.00;98175.91;5010049;28;20017;-79
2023/09/18 04:01:10;;;;;;;4.85;3.42;;;;;;;18.44;100.00;98200.56;5007573;28;20025;-80
2023/09/18 04:03:35;;;;;;;9.05;3.92;;;;;;;18.39;100.00;98208.75;5014848;28;20026;-78
2023/09/18 04:06:01;;;;;;;7.60;3.65;;;;;;;18.21;100.00;98195.53;4995152;28;20109;-78
2023/09/18 04:08:26;;;;;;;5.68;3.60;;;;;;;18.29;100.00;98230.66;5001637;28;20026;-78
2023/09/18 04:10:55;;;;;;;5.65;3.72;;;;;;;18.45;100.00;98245.22;5015088;28;20456;-77
2023/09/18 04:13:21;;;;;;;5.22;3.50;;;;;;;18.30;100.00;98238.56;5016286;28;20018;-77
2023/09/18 04:15:46;;;;;;;5.10;3.47;;;;;;;18.33;100.00;98267.34;5009985;28;20475;-80
2023/09/18 04:18:11;;;;;;;11.15;4.65;;;;;;;18.21;100.00;98244.81;5013338;28;20029;-78
2023/09/18 04:20:37;;;;;;;6.32;3.80;;;;;;;18.42;100.00;98254.81;5010327;28;20485;-76
2023/09/18 04:23:22;;;;;;;5.95;3.25;;;;;;;18.49;100.00;98274.53;5000788;28;20029;-77
2023/09/18 04:25:49;;;;;;;8.75;3.47;;;;;;;18.56;100.00;98261.41;5013804;28;20108;-77
2023/09/18 04:28:17;;;;;;;5.22;3.70;;;;;;;18.56;100.00;98249.63;5013754;28;20576;-76
2023/09/18 04:30:42;;;;;;;13.35;4.30;;;;;;;18.37;100.00;98224.66;4999990;28;20022;-74
2023/09/18 04:33:08;;;;;;;8.43;4.22;;;;;;;18.38;100.00;98238.06;5010647;28;20129;-77
2023/09/18 04:35:33;;;;;;;7.07;4.63;;;;;;;18.34;100.00;98236.16;5010220;28;20018;-78
2023/09/18 04:37:59;;;;;;;6.90;4.55;;;;;;;18.38;100.00;98242.72;5006806;28;20046;-76
2023/09/18 04:40:26;;;;;;;5.80;4.38;;;;;;;18.28;100.00;98242.66;5006564;28;20026;-77
2023/09/18 04:42:52;;;;;;;10.32;5.22;;;;;;;18.08;100.00;98214.13;5010026;28;20099;-77
2023/09/18 04:45:18;;;;;;;11.98;4.38;;;;;;;18.12;100.00;98201.53;5005241;28;20092;-76
2023/09/18 04:47:43;;;;;;;6.63;4.25;;;;;;;17.99;100.00;98163.69;5004152;28;20027;-78
2023/09/18 04:50:09;;;;;;;6.30;4.55;;;;;;;17.89;100.00;98139.88;5013905;28;20496;-76
2023/09/18 04:52:38;;;;;;;9.50;4.45;;;;;;;18.05;100.00;98165.38;5005131;28;20027;-74
2023/09/18 04:55:06;;;;;;;6.90;4.35;;;;;;;18.02;100.00;98113.88;5001939;28;20054;-76
2023/09/18 04:57:31;;;;;;;9.15;4.60;;;;;;;18.11;100.00;98116.94;5011760;28;20026;-76
2023/09/18 04:59:56;;;;;;;10.50;4.20;;;;;;;18.14;100.00;98121.88;5004438;28;20072;-77
2023/09/18 05:02:21;;;;;;;8.40;4.32;;;;;;;18.07;100.00;98105.69;4998467;28;20473;-74
2023/09/18 05:04:47;;;;;;;9.43;4.45;;;;;;;18.09;100.00;98098.03;5005605;28;20101;-77
2023/09/18 05:07:12;;;;;;;7.43;3.95;;;;;;;18.14;100.00;98091.78;5005615;28;20065;-76
2023/09/18 05:09:38;;;;;;;8.82;4.30;;;;;;;18.08;100.00;98101.06;5007549;28;20115;-81
2023/09/18 05:12:04;;;;;;;9.13;4.03;;;;;;;18.16;100.00;98120.53;5014728;28;20033;-80
2023/09/18 05:14:30;;;;;;;10.55;4.55;;;;;;;18.19;100.00;98135.59;5010686;28;20021;-76
2023/09/18 05:16:55;;;;;;;13.60;4.28;;;;;;;18.28;100.00;98139.44;5015292;28;20037;-78
2023/09/18 05:19:21;;;;;;;10.93;3.85;;;;;;;18.41;100.00;98157.28;5008195;28;20034;-82
2023/09/18 05:21:48;;;;;;;6.63;4.20;;;;;;;18.36;100.00;98141.63;5006634;28;20017;-73
2023/09/18 05:24:13;;;;;;;13.15;4.13;;;;;;;18.36;100.00;98113.44;5003888;28;20026;-73
2023/09/18 05:26:38;;;;;;;7.15;3.80;;;;;;;18.35;100.00;98098.13;5013426;28;20022;-74
2023/09/18 05:29:04;;;;;;;14.07;3.88;;;;;;;18.23;100.00;98086.56;5012171;28;20105;-70
2023/09/18 05:31:30;;;;;;;7.50;3.45;;;;;;;18.26;100.00;98100.56;5013629;28;20022;-73
2023/09/18 05:33:56;;;;;;;6.47;3.25;;;;;;;18.18;100.00;98101.06;5009172;28;20017;-73
2023/09/18 05:36:21;;;;;;;9.38;3.83;;;;;;;18.29;100.00;98153.97;5001637;28;20041;-74
2023/09/18 05:38:46;;;;;;;8.90;4.53;;;;;;;18.32;100.00;98169.84;5004489;28;20036;-76
2023/09/18 05:41:11;;;;;;;11.07;4.10;;;;;;;18.30;100.00;98186.53;5018596;28;20038;-75
2023/09/18 05:43:37;;;;;;;7.72;3.92;;;;;;;18.28;100.00;98171.47;5000289;28;20118;-75
2023/09/18 05:46:02;;;;;;;6.28;3.08;;;;;;;18.23;100.00;98157.78;5008160;28;20123;-76
2023/09/18 05:48:28;;;;;;;5.80;3.00;;;;;;;18.36;100.00;98163.56;5009579;28;20049;-77
2023/09/18 05:50:54;;;;;;;8.98;2.90;;;;;;;18.40;100.00;98133.72;5012433;28;20026;-77
2023/09/18 05:53:20;;;;;;;11.25;3.47;;;;;;;18.44;100.00;98140.28;5006201;28;20082;-76
2023/09/18 05:55:45;;;;;;;12.07;2.97;;;;;;;18.54;100.00;98132.09;4999255;28;20469;-77
2023/09/18 05:58:11;;;;;;;6.20;3.20;;;;;;;18.46;100.00;98129.06;4996897;28;20089;-77
2023/09/18 06:00:36;;;;;;;8.02;2.92;;;;;;;18.59;100.00;98147.72;5006186;28;20023;-74
2023/09/18 06:03:02;;;;;;;7.18;2.95;;;;;;;18.56;100.00;98146.34;5003800;28;20036;-75
2023/09/18 06:05:30;;;;;;;9.75;2.95;;;;;;;18.69;100.00;98177.88;5014220;28;20026;-75
2023/09/18 06:07:56;;;;;;;8.07;3.20;;;;;;;18.87;100.00;98162.06;5010326;28;20030;-74
2023/09/18 06:10:21;;;;;;;11.80;2.80;;;;;;;18.80;100.00;98132.16;4998445;28;20037;-73
2023/09/18 06:12:47;;;;;;;10.27;3.00;;;;;;;18.99;100.00;98116.81;4999916;28;20081;-71
2023/09/18 06:15:12;;;;;;;9.82;2.90;;;;;;;19.25;100.00;98123.06;5006747;28;20030;-73
2023/09/18 06:17:43;;;;;;;11.90;2.38;;;;;;;19.32;100.00;98102.78;5000433;28;20136;-78
2023/09/18 06:20:10;;;;;;;7.30;2.40;;;;;;;19.42;100.00;98103.59;5018992;28;20073;-77
2023/09/18 06:22:39;;;;;;;12.23;2.55;;;;;;;19.47;100.00;98114.56;4995883;28;20021;-78
2023/09/18 06:25:05;;;;;;;;;;;;;;;19.54;100.00;98117.00;4992126;28;20037;-74
2023/09/18 06:27:32;;;;;;;9.65;2.25;;;;;;;19.53;100.00;98076.94;5002791;28;19910;-75
2023/09/18 06:29:57;;;;;;;11.00;2.75;;;;;;;19.56;100.00;98076.38;5008232;28;20026;-77
2023/09/18 06:32:23;;;;;;;7.22;2.42;;;;;;;19.78;100.00;98110.91;5009575;28;20017;-75
2023/09/18 06:34:48;;;;;;;10.45;2.65;;;;;;;19.73;100.00;98103.53;5002950;28;20067;-77
2023/09/18 06:37:13;;;;;;;12.27;2.58;;;;;;;19.73;100.00;98114.50;5009751;28;20113;-78
2023/09/18 06:39:39;;;;;;;13.95;2.58;;;;;;;19.70;100.00;98117.78;5004133;28;20017;-79
2023/09/18 06:42:05;;;;;;;9.88;2.22;;;;;;;19.76;100.00;98119.44;5006489;28;20025;-80
2023/09/18 06:44:30;;;;;;;5.03;1.90;;;;;;;19.82;100.00;98117.50;5008066;28;20388;-79
2023/09/18 06:46:55;;;;;;;9.50;2.90;;;;;;;19.87;100.00;98136.69;5007253;28;20022;-78
2023/09/18 06:49:20;;;;;;;9.57;2.28;;;;;;;19.88;100.00;98133.66;5011199;28;20430;-76
2023/09/18 06:51:46;;;;;;;6.57;2.28;;;;;;;19.93;100.00;98141.88;5013571;28;20580;-77
2023/09/18 06:54:11;;;;;;;6.78;2.50;;;;;;;19.89;100.00;98142.72;4998139;28;20022;-70
2023/09/18 06:56:36;;;;;;;10.25;2.13;;;;;;;19.84;100.00;98123.53;5012746;28;20374;-71
2023/09/18 06:59:02;;;;;;;15.73;3.30;;;;;;;20.01;100.00;98140.47;5003440;28;20018;-74
2023/09/18 07:01:28;;;;;;;8.50;2.38;;;;;;;19.99;100.00;98139.09;5008957;28;21190;-74
2023/09/18 07:03:54;;;;;;;9.13;2.17;;;;;;;20.00;100.00;98146.25;4999610;28;20136;-74
2023/09/18 07:06:20;;;;;;;11.38;2.55;;;;;;;20.06;100.00;98128.66;5007769;28;20053;-74
2023/09/18 07:08:46;;;;;;;9.52;2.50;;;;;;;20.22;100.00;98138.44;4997308;28;20058;-74
2023/09/18 07:11:12;;;;;;;8.85;2.45;;;;;;;20.18;100.00;98114.59;5000326;28;20455;-74
2023/09/18 07:13:38;;;;;;;8.85;2.00;;;;;;;20.38;100.00;98125.44;5017084;28;20121;-74
2023/09/18 07:16:03;;;;;;;7.40;1.95;;;;;;;20.41;100.00;98157.88;5010580;28;20038;-74
2023/09/18 07:18:29;;;;;;;7.22;2.15;;;;;;;20.26;100.00;98161.50;5012679;28;20038;-74
2023/09/18 07:20:54;;;;;;;5.30;1.52;;;;;;;20.13;100.00;98156.63;4992230;28;20053;-74
2023/09/18 07:23:20;;;;;;;9.50;2.15;;;;;;;20.09;100.00;98155.53;4998337;28;20042;-74
2023/09/18 07:25:47;;;;;;;5.13;1.73;;;;;;;20.11;100.00;98154.16;5007756;28;20050;-74
2023/09/18 07:28:17;;;;;;;9.73;1.90;;;;;;;20.18;100.00;98170.34;5002823;28;20022;-74
2023/09/18 07:30:43;;;;;;;;;;;;;;;20.27;100.00;98189.78;5017704;28;20397;-74
2023/09/18 07:33:09;;;;;;;5.25;1.58;;;;;;;20.28;100.00;98175.78;5009009;28;20428;-74
2023/09/18 07:35:34;;;;;;;5.50;2.15;;;;;;;20.39;100.00;98170.25;5006834;28;20030;-73
2023/09/18 07:38:00;;;;;;;10.05;2.40;;;;;;;20.59;100.00;98164.63;5008011;28;21672;-74
2023/09/18 07:40:25;;;;;;;9.20;2.05;;;;;;;20.72;100.00;98174.19;5005248;28;20087;-74
2023/09/18 07:42:50;;;;;;;8.25;2.45;;;;;;;20.78;100.00;98193.13;5007728;28;20105;-74
2023/09/18 07:45:17;;;;;;;9.27;2.38;;;;;;;20.71;100.00;98181.63;4999400;28;20026;-74
2023/09/18 07:47:43;;;;;;;18.60;3.05;;;;;;;20.74;100.00;98161.78;5011671;28;20024;-74
2023/09/18 07:50:08;;;;;;;9.27;2.00;;;;;;;20.99;100.00;98182.00;5000045;28;20029;-74
2023/09/18 07:52:33;;;;;;;6.40;1.73;;;;;;;21.15;100.00;98183.50;5010486;28;20049;-74
2023/09/18 07:54:59;;;;;;;8.00;2.05;;;;;;;21.37;100.00;98183.03;5002482;28;20038;-74
2023/09/18 07:57:28;;;;;;;9.13;2.00;;;;;;;21.70;100.00;98177.00;5000425;28;20030;-74
2023/09/18 07:59:53;;;;;;;6.32;1.70;;;;;;;22.08;100.00;98181.47;5004489;28;20477;-73
2023/09/18 08:02:19;;;;;;;8.20;1.83;;;;;;;22.56;100.00;98177.03;5004500;28;20030;-73
2023/09/18 08:04:44;;;;;;;9.70;1.90;;;;;;;23.13;100.00;98172.34;4997421;28;20466;-73
2023/09/18 08:07:10;;;;;;;10.05;1.85;;;;;;;23.78;100.00;98175.09;5001266;28;20104;-73
2023/09/18 08:09:36;;;;;;;7.05;1.77;;;;;;;24.62;100.00;98182.25;5011437;28;20026;-73
2023/09/18 08:12:03;;;;;;;5.35;1.27;;;;;;;24.65;100.00;98172.50;5000261;28;20011;-73
2023/09/18 08:14:28;;;;;;;8.65;1.60;;;;;;;25.03;100.00;98200.69;4999371;28;20494;-73
2023/09/18 08:16:58;;;;;;;5.25;1.83;;;;;;;25.34;100.00;98170.34;5005724;28;20033;-77
2023/09/18 08:19:26;;;;;;;5.25;1.45;;;;;;;25.56;100.00;98186.09;5006785;28;20026;-77
2023/09/18 08:21:52;;;;;;;7.07;1.90;;;;;;;25.13;100.00;98174.72;5004833;28;20050;-77
2023/09/18 08:24:18;;;;;;;5.07;1.60;;;;;;;25.16;100.00;98153.94;4999767;28;20042;-76
2023/09/18 08:26:43;;;;;;;8.05;1.63;;;;;;;25.76;100.00;98154.28;5005649;28;20090;-76
2023/09/18 08:29:09;;;;;;;11.60;1.25;;;;;;;25.61;100.00;98159.41;4998379;28;20053;-76
2023/09/18 08:31:34;;;;;;;9.52;1.45;;;;;;;25.09;100.00;98176.47;5010232;28;20087;-77
2023/09/18 08:33:59;;;;;;;4.13;1.10;;;;;;;24.55;100.00;98161.66;5003062;28;20076;-76
2023/09/18 08:36:25;;;;;;;5.30;1.33;;;;;;;24.27;100.00;98181.88;4995503;28;20035;-76
2023/09/18 08:38:51;;;;;;;5.43;1.30;;;;;;;23.34;100.00;98170.91;5004752;28;20025;-76
2023/09/18 08:41:19;;;;;;;9.30;1.45;;;;;;;23.05;100.00;98195.94;5003251;28;20045;-78
2023/09/18 08:43:45;;;;;;;12.83;1.40;;;;;;;22.79;100.00;98209.25;5001466;28;20474;-76
2023/09/18 08:46:11;;;;;;;7.65;1.38;;;;;;;22.69;100.00;98213.00;5003640;28;20049;-76
2023/09/18 08:48:37;;;;;;;4.60;1.42;;;;;;;22.19;100.00;98206.19;5015501;28;21648;-77
2023/09/18 08:51:04;;;;;;;5.68;1.60;;;;;;;22.03;100.00;98239.41;5012641;28;20425;-77
2023/09/18 08:53:35;;;;;;;4.63;1.40;;;;;;;22.02;100.00;98240.50;4997645;28;20046;-77
2023/09/18 08:56:01;;;;;;;3.08;1.27;;;;;;;22.16;100.00;98215.84;5012368;28;20030;-72
2023/09/18 08:58:33;;;;;;;5.00;1.30;;;;;;;22.97;100.00;98216.75;5012041;28;20030;-72
2023/09/18 09:01:00;;;;;;;9.98;1.52;;;;;;;23.63;100.00;98216.78;5013143;28;20086;-72
2023/09/18 09:03:26;;;;;;;5.45;1.40;;;;;;;23.21;100.00;98235.13;5011260;28;20037;-72
2023/09/18 09:05:52;;;;;;;7.68;2.03;;;;;;;22.61;100.00;98218.34;5010343;28;20028;-72
2023/09/18 09:08:17;;;;;;;3.80;1.35;;;;;;;22.10;100.00;98225.28;5003966;28;20204;-72
2023/09/18 09:10:42;;;;;;;3.28;1.15;;;;;;;21.77;100.00;98221.50;5012244;28;20080;-71
2023/09/18 09:13:07;;;;;;;4.70;1.08;;;;;;;21.43;100.00;98238.88;5005418;28;20507;-72
2023/09/18 09:15:47;;;;;;;5.28;0.70;;;;;;;21.08;100.00;98265.50;5007508;28;20029;-72
2023/09/18 09:18:16;;;;;;;4.70;1.02;;;;;;;20.98;100.00;98282.91;5012260;28;20533;-72
2023/09/18 09:20:59;;;;;;;6.38;0.98;;;;;;;20.70;100.00;98289.13;5010548;28;20446;-72
2023/09/18 09:23:29;;;;;;;4.72;1.05;;;;;;;19.96;100.00;98312.63;5014264;28;20128;-76
2023/09/18 09:26:16;;;;;;;4.10;0.95;;;;;;;19.29;100.00;98333.75;5005764;28;20048;-77
2023/09/18 09:28:44;;;;;;;3.97;0.77;;;;;;;18.95;100.00;98337.75;5016926;28;20032;-76
2023/09/18 09:31:13;;;;;;;2.25;0.80;;;;;;;18.72;100.00;98346.41;5007594;28;20029;-76
2023/09/18 09:33:50;;;;;;;5.18;1.00;;;;;;;18.39;100.00;98334.72;5013757;28;20030;-76
2023/09/18 09:36:16;;;;;;;5.75;0.90;;;;;;;18.35;100.00;98352.81;5010530;28;20025;-75
2023/09/18 09:38:44;;;;;;;6.05;0.90;;;;;;;18.39;100.00;98360.25;5005021;28;20038;-75
2023/09/18 09:41:13;;;;;;;2.97;0.90;;;;;;;18.20;100.00;98345.31;5003083;28;20029;-75
2023/09/18 09:43:42;;;;;;;;;;;;;;;18.25;100.00;98363.69;4997308;28;20099;-75
2023/09/18 09:46:16;;;;;;;5.13;1.30;;;;;;;18.15;100.00;98351.56;5020054;28;19949;-76
2023/09/18 09:49:04;;;;;;;3.35;1.00;;;;;;;18.32;100.00;98358.81;5003167;28;20061;-75
2023/09/18 09:51:30;;;;;;;3.83;0.80;;;;;;;18.26;100.00;98348.91;4999443;28;20110;-75
2023/09/18 09:53:58;;;;;;;2.92;0.82;;;;;;;18.18;100.00;98351.06;5009908;28;20108;-75
2023/09/18 09:56:40;;;;;;;6.20;1.23;;;;;;;18.48;100.00;98362.47;5005246;28;20072;-75
2023/09/18 09:59:08;;;;;;;2.78;1.00;;;;;;;18.58;100.00;98363.34;5008711;28;20017;-76
2023/09/18 10:01:35;;;;;;;4.22;0.98;;;;;;;18.78;100.00;98361.81;5002793;28;20565;-75
2023/09/18 10:04:13;;;;;;;5.18;0.82;;;;;;;18.70;100.00;98323.94;5009259;28;20021;-75
2023/09/18 10:06:42;;;;;;;2.38;0.90;;;;;;;18.75;100.00;98296.59;5002004;28;20125;-76
2023/09/18 10:09:10;;;;;;;;;;;;;;;19.19;100.00;98313.41;4999109;28;20129;-75
2023/09/18 10:11:40;;;;;;;1.65;0.73;;;;;;;19.62;100.00;98302.19;5012957;28;19921;-75
2023/09/18 10:14:31;;;;;;;4.03;1.10;;;;;;;19.70;100.00;98290.69;5006300;28;20497;-75
2023/09/18 10:16:59;;;;;;;4.07;0.98;;;;;;;19.73;100.00;98290.19;4995301;28;20042;-77
2023/09/18 10:19:45;;;;;;;3.15;0.80;;;;;;;19.66;100.00;98273.13;5011062;28;20081;-74
2023/09/18 10:22:20;;;;;;;3.00;0.90;;;;;;;19.58;100.00;98279.16;5005659;28;20022;-74
2023/09/18 10:24:47;;;;;;;3.33;0.82;;;;;;;19.61;100.00;98306.88;5012816;28;20026;-75
2023/09/18 10:27:14;;;;;;;2.28;0.60;;;;;;;19.55;100.00;98312.66;5003927;28;20041;-74
2023/09/18 10:29:41;;;;;;;2.65;0.90;;;;;;;19.43;100.00;98318.38;5008885;28;20030;-74
2023/09/18 10:32:07;;;;;;;3.53;0.63;;;;;;;19.56;100.00;98358.19;5006854;28;20018;-74
2023/09/18 10:34:34;;;;;;;1.45;0.85;;;;;;;19.53;100.00;98362.31;5006674;28;20022;-75
2023/09/18 10:37:02;;;;;;;2.08;0.75;;;;;;;19.59;100.00;98369.44;5004236;28;20112;-75
2023/09/18 10:39:28;;;;;;;4.03;1.27;;;;;;;19.53;100.00;98361.47;5011530;28;20100;-75
2023/09/18 10:41:56;;;;;;;2.33;0.80;;;;;;;19.20;100.00;98337.03;4999635;28;20057;-74
2023/09/18 10:44:23;;;;;;;4.03;0.80;;;;;;;19.23;100.00;98350.19;5000981;28;20026;-75
2023/09/18 10:46:51;;;;;;;5.28;1.00;;;;;;;19.08;100.00;98346.59;5000525;28;20481;-75
2023/09/18 10:49:17;;;;;;;3.25;0.77;;;;;;;19.04;100.00;98366.28;5009295;28;20410;-75
2023/09/18 10:51:42;;;;;;;4.03;0.90;;;;;;;19.04;100.00;98349.84;5016646;28;20024;-75
2023/09/18 10:54:09;;;;;;;2.17;0.70;;;;;;;18.94;100.00;98355.31;5003214;28;20500;-75
2023/09/18 10:56:35;;;;;;;3.92;1.02;;;;;;;19.02;100.00;98363.03;5001940;28;20061;-75
2023/09/18 10:59:03;;;;;;;2.63;0.98;;;;;;;19.17;100.00;98353.19;5005221;28;20056;-75
2023/09/18 11:01:30;;;;;;;3.33;1.30;;;;;;;19.20;100.00;98349.88;5002905;28;20038;-75
2023/09/18 11:04:01;;;;;;;6.22;0.90;;;;;;;19.42;100.00;98338.69;5000245;28;20082;-75
2023/09/18 11:06:27;;;;;;;4.63;1.10;;;;;;;19.28;100.00;98319.19;5012498;28;20112;-74
2023/09/18 11:09:04;;;;;;;3.22;0.90;;;;;;;19.25;100.00;98325.22;5004375;28;20097;-75
2023/09/18 11:11:30;;;;;;;3.33;0.85;;;;;;;19.17;100.00;98350.44;5011292;28;20018;-75
2023/09/18 11:13:57;;;;;;;3.47;1.00;;;;;;;19.03;100.00;98331.75;4997322;28;20076;-74
2023/09/18 11:16:28;;;;;;;6.55;1.55;;;;;;;19.13;100.00;98336.44;5003160;28;20490;-74
2023/09/18 11:19:00;;;;;;;3.58;0.90;;;;;;;19.19;100.00;98324.38;5010016;28;20099;-75
2023/09/18 11:21:27;;;;;;;3.60;0.90;;;;;;;19.21;100.00;98324.13;5001097;28;20034;-75
2023/09/18 11:24:11;;;;;;;4.00;0.90;;;;;;;19.23;100.00;98317.28;5002340;28;20026;-74